sensor_id;sensor_type;location;lat;lon;timestamp;pressure;altitude;pressure_sealevel;temperature;humidity
29045;BME280;16133;49.486;12.176;2023-07-09T00:01:10;97784.94;;;13.99;100.00
29045;BME280;16133;49.486;12.176;2023-07-09T00:03:37;97789.22;;;13.94;100.00
29045;BME280;16133;49.486;12.176;2023-07-09T00:06:02;97789.78;;;13.89;100.00
29045;BME280;16133;49.486;12.176;2023-07-09T00:08:30;97793.41;;;13.81;100.00
29045;BME280;16133;49.486;12.176;2023-07-09T00:10:56;97796.25;;;13.80;100.00
29045;BME280;16133;49.486;12.176;2023-07-09T00:13:24;97807.13;;;13.78;100.00
29045;BME280;16133;49.486;12.176;2023-07-09T00:15:51;97800.78;;;13.79;100.00
29045;BME280;16133;49.486;12.176;2023-07-09T00:18:16;97806.47;;;13.76;100.00
29045;BME280;16133;49.486;12.176;2023-07-09T00:20:42;97804.19;;;13.73;100.00
29045;BME280;16133;49.486;12.176;2023-07-09T00:23:09;97792.25;;;13.69;100.00
29045;BME280;16133;49.486;12.176;2023-07-09T00:25:35;97795.31;;;13.66;100.00
29045;BME280;16133;49.486;12.176;2023-07-09T00:28:01;97802.03;;;13.62;100.00
29045;BME280;16133;49.486;12.176;2023-07-09T00:30:27;97805.06;;;13.59;100.00
29045;BME280;16133;49.486;12.176;2023-07-09T00:32:52;97792.97;;;13.57;100.00
29045;BME280;16133;49.486;12.176;2023-07-09T00:35:19;97802.34;;;13.53;100.00
29045;BME280;16133;49.486;12.176;2023-07-09T00:37:46;97799.03;;;13.51;100.00
29045;BME280;16133;49.486;12.176;2023-07-09T00:40:16;97800.25;;;13.48;100.00
29045;BME280;16133;49.486;12.176;2023-07-09T00:42:46;97800.63;;;13.45;100.00
29045;BME280;16133;49.486;12.176;2023-07-09T00:45:22;97807.34;;;13.41;100.00
29045;BME280;16133;49.486;12.176;2023-07-09T00:47:53;97805.03;;;13.38;100.00
29045;BME280;16133;49.486;12.176;2023-07-09T00:50:29;97802.94;;;13.33;100.00
29045;BME280;16133;49.486;12.176;2023-07-09T00:53:00;97807.63;;;13.31;100.00
29045;BME280;16133;49.486;12.176;2023-07-09T00:55:34;97809.84;;;13.28;100.00
29045;BME280;16133;49.486;12.176;2023-07-09T00:58:06;97813.88;;;13.24;100.00
29045;BME280;16133;49.486;12.176;2023-07-09T01:00:36;97816.72;;;13.22;100.00
29045;BME280;16133;49.486;12.176;2023-07-09T01:03:15;97826.19;;;13.25;100.00
29045;BME280;16133;49.486;12.176;2023-07-09T01:05:45;97818.00;;;13.26;100.00
29045;BME280;16133;49.486;12.176;2023-07-09T01:08:11;97817.22;;;13.26;100.00
29045;BME280;16133;49.486;12.176;2023-07-09T01:10:37;97817.75;;;13.21;100.00
29045;BME280;16133;49.486;12.176;2023-07-09T01:13:05;97809.47;;;13.16;100.00
29045;BME280;16133;49.486;12.176;2023-07-09T01:15:34;97826.84;;;13.12;100.00
29045;BME280;16133;49.486;12.176;2023-07-09T01:18:05;97827.38;;;13.08;100.00
29045;BME280;16133;49.486;12.176;2023-07-09T01:20:30;97815.25;;;13.05;100.00
29045;BME280;16133;49.486;12.176;2023-07-09T01:22:56;97821.78;;;13.03;100.00
29045;BME280;16133;49.486;12.176;2023-07-09T01:25:23;97815.19;;;12.99;100.00
29045;BME280;16133;49.486;12.176;2023-07-09T01:27:49;97820.84;;;12.95;100.00
29045;BME280;16133;49.486;12.176;2023-07-09T01:30:17;97826.38;;;12.94;100.00
29045;BME280;16133;49.486;12.176;2023-07-09T01:32:51;97820.59;;;12.90;100.00
29045;BME280;16133;49.486;12.176;2023-07-09T01:35:19;97815.66;;;12.87;100.00
29045;BME280;16133;49.486;12.176;2023-07-09T01:37:45;97817.03;;;12.83;100.00
29045;BME280;16133;49.486;12.176;2023-07-09T01:40:14;97811.03;;;12.81;100.00
29045;BME280;16133;49.486;12.176;2023-07-09T01:42:40;97813.06;;;12.79;100.00
29045;BME280;16133;49.486;12.176;2023-07-09T01:45:07;97814.44;;;12.75;100.00
29045;BME280;16133;49.486;12.176;2023-07-09T01:47:33;97807.00;;;12.71;100.00
29045;BME280;16133;49.486;12.176;2023-07-09T01:49:58;97804.50;;;12.69;100.00
29045;BME280;16133;49.486;12.176;2023-07-09T01:52:27;97813.53;;;12.68;100.00
29045;BME280;16133;49.486;12.176;2023-07-09T01:54:54;97805.53;;;12.68;100.00
29045;BME280;16133;49.486;12.176;2023-07-09T01:57:22;97819.03;;;12.67;100.00
29045;BME280;16133;49.486;12.176;2023-07-09T01:59:53;97820.22;;;12.64;100.00
29045;BME280;16133;49.486;12.176;2023-07-09T02:02:23;97820.56;;;12.61;100.00
29045;BME280;16133;49.486;12.176;2023-07-09T02:04:53;97817.44;;;12.58;100.00
29045;BME280;16133;49.486;12.176;2023-07-09T02:07:19;97815.16;;;12.55;100.00
29045;BME280;16133;49.486;12.176;2023-07-09T02:09:45;97816.53;;;12.51;100.00
29045;BME280;16133;49.486;12.176;2023-07-09T02:12:12;97812.41;;;12.48;100.00
29045;BME280;16133;49.486;12.176;2023-07-09T02:14:38;97811.94;;;12.44;100.00
29045;BME280;16133;49.486;12.176;2023-07-09T02:17:04;97811.47;;;12.41;100.00
29045;BME280;16133;49.486;12.176;2023-07-09T02:19:30;97819.00;;;12.37;100.00
29045;BME280;16133;49.486;12.176;2023-07-09T02:21:56;97822.19;;;12.33;100.00
29045;BME280;16133;49.486;12.176;2023-07-09T02:24:22;97824.38;;;12.29;100.00
29045;BME280;16133;49.486;12.176;2023-07-09T02:26:52;97827.59;;;12.25;100.00
29045;BME280;16133;49.486;12.176;2023-07-09T02:29:17;97827.94;;;12.22;100.00
29045;BME280;16133;49.486;12.176;2023-07-09T02:31:44;97833.63;;;12.19;100.00
29045;BME280;16133;49.486;12.176;2023-07-09T02:34:09;97831.31;;;12.16;100.00
29045;BME280;16133;49.486;12.176;2023-07-09T02:36:35;97828.84;;;12.14;100.00
29045;BME280;16133;49.486;12.176;2023-07-09T02:39:00;97832.66;;;12.12;100.00
29045;BME280;16133;49.486;12.176;2023-07-09T02:41:25;97829.38;;;12.10;100.00
29045;BME280;16133;49.486;12.176;2023-07-09T02:43:51;97835.06;;;12.07;100.00
29045;BME280;16133;49.486;12.176;2023-07-09T02:46:16;97832.72;;;12.04;100.00
29045;BME280;16133;49.486;12.176;2023-07-09T02:48:41;97840.06;;;12.02;100.00
29045;BME280;16133;49.486;12.176;2023-07-09T02:51:07;97828.81;;;12.00;100.00
29045;BME280;16133;49.486;12.176;2023-07-09T02:53:32;97832.47;;;11.98;100.00
29045;BME280;16133;49.486;12.176;2023-07-09T02:55:57;97827.97;;;11.99;100.00
29045;BME280;16133;49.486;12.176;2023-07-09T02:58:23;97831.25;;;12.01;100.00
29045;BME280;16133;49.486;12.176;2023-07-09T03:00:49;97830.44;;;12.01;100.00
29045;BME280;16133;49.486;12.176;2023-07-09T03:03:17;97838.41;;;12.01;100.00
29045;BME280;16133;49.486;12.176;2023-07-09T03:05:44;97839.09;;;12.03;100.00
29045;BME280;16133;49.486;12.176;2023-07-09T03:08:10;97836.59;;;12.01;100.00
29045;BME280;16133;49.486;12.176;2023-07-09T03:10:35;97844.75;;;12.00;100.00
29045;BME280;16133;49.486;12.176;2023-07-09T03:13:00;97839.59;;;11.98;100.00
29045;BME280;16133;49.486;12.176;2023-07-09T03:15:26;97831.63;;;11.98;100.00
29045;BME280;16133;49.486;12.176;2023-07-09T03:17:51;97845.09;;;11.96;100.00
29045;BME280;16133;49.486;12.176;2023-07-09T03:20:16;97844.09;;;11.97;100.00
29045;BME280;16133;49.486;12.176;2023-07-09T03:22:42;97850.06;;;12.00;100.00
29045;BME280;16133;49.486;12.176;2023-07-09T03:25:07;97853.38;;;12.02;100.00
29045;BME280;16133;49.486;12.176;2023-07-09T03:27:33;97855.03;;;12.03;100.00
29045;BME280;16133;49.486;12.176;2023-07-09T03:29:58;97843.09;;;11.98;100.00
29045;BME280;16133;49.486;12.176;2023-07-09T03:32:23;97857.16;;;12.07;100.00
29045;BME280;16133;49.486;12.176;2023-07-09T03:34:49;97864.59;;;12.12;100.00
29045;BME280;16133;49.486;12.176;2023-07-09T03:37:14;97867.19;;;12.20;100.00
29045;BME280;16133;49.486;12.176;2023-07-09T03:39:40;97869.78;;;12.28;100.00
29045;BME280;16133;49.486;12.176;2023-07-09T03:42:05;97879.91;;;12.32;100.00
29045;BME280;16133;49.486;12.176;2023-07-09T03:44:31;97877.53;;;12.37;100.00
29045;BME280;16133;49.486;12.176;2023-07-09T03:46:56;97882.13;;;12.43;100.00
29045;BME280;16133;49.486;12.176;2023-07-09T03:49:21;97883.25;;;12.49;100.00
29045;BME280;16133;49.486;12.176;2023-07-09T03:51:47;97884.00;;;12.58;100.00
29045;BME280;16133;49.486;12.176;2023-07-09T03:54:12;97885.59;;;12.67;100.00
29045;BME280;16133;49.486;12.176;2023-07-09T03:56:37;97891.66;;;12.75;100.00
29045;BME280;16133;49.486;12.176;2023-07-09T03:59:03;97897.09;;;12.82;100.00
29045;BME280;16133;49.486;12.176;2023-07-09T04:01:28;97901.34;;;12.91;100.00
29045;BME280;16133;49.486;12.176;2023-07-09T04:03:53;97890.59;;;12.99;100.00
29045;BME280;16133;49.486;12.176;2023-07-09T04:06:19;97893.97;;;13.08;100.00
29045;BME280;16133;49.486;12.176;2023-07-09T04:08:44;97893.91;;;13.16;100.00
29045;BME280;16133;49.486;12.176;2023-07-09T04:11:10;97893.84;;;13.24;100.00
29045;BME280;16133;49.486;12.176;2023-07-09T04:13:35;97892.72;;;13.33;100.00
29045;BME280;16133;49.486;12.176;2023-07-09T04:16:00;97885.66;;;13.40;100.00
29045;BME280;16133;49.486;12.176;2023-07-09T04:18:26;97894.16;;;13.50;100.00
29045;BME280;16133;49.486;12.176;2023-07-09T04:20:52;97890.19;;;13.61;100.00
29045;BME280;16133;49.486;12.176;2023-07-09T04:23:18;97887.25;;;13.70;100.00
29045;BME280;16133;49.486;12.176;2023-07-09T04:25:44;97885.94;;;13.81;100.00
29045;BME280;16133;49.486;12.176;2023-07-09T04:28:10;97890.59;;;13.94;100.00
29045;BME280;16133;49.486;12.176;2023-07-09T04:30:35;97893.75;;;14.04;100.00
29045;BME280;16133;49.486;12.176;2023-07-09T04:33:00;97897.59;;;14.16;100.00
29045;BME280;16133;49.486;12.176;2023-07-09T04:35:26;97901.22;;;14.29;100.00
29045;BME280;16133;49.486;12.176;2023-07-09T04:37:51;97899.72;;;14.42;100.00
29045;BME280;16133;49.486;12.176;2023-07-09T04:40:17;97901.69;;;14.54;100.00
29045;BME280;16133;49.486;12.176;2023-07-09T04:42:43;97902.81;;;14.66;100.00
29045;BME280;16133;49.486;12.176;2023-07-09T04:45:10;97894.88;;;14.79;100.00
29045;BME280;16133;49.486;12.176;2023-07-09T04:47:37;97896.44;;;14.95;100.00
29045;BME280;16133;49.486;12.176;2023-07-09T04:50:04;97908.53;;;15.19;100.00
29045;BME280;16133;49.486;12.176;2023-07-09T04:52:29;97911.47;;;15.65;100.00
29045;BME280;16133;49.486;12.176;2023-07-09T04:54:56;97913.34;;;16.38;100.00
29045;BME280;16133;49.486;12.176;2023-07-09T04:57:21;97912.75;;;17.15;100.00
29045;BME280;16133;49.486;12.176;2023-07-09T04:59:47;97919.81;;;17.80;95.42
29045;BME280;16133;49.486;12.176;2023-07-09T05:02:13;97918.97;;;18.31;90.51
29045;BME280;16133;49.486;12.176;2023-07-09T05:04:39;97921.94;;;18.79;87.75
29045;BME280;16133;49.486;12.176;2023-07-09T05:07:05;97930.31;;;19.38;83.37
29045;BME280;16133;49.486;12.176;2023-07-09T05:09:30;97916.84;;;20.11;77.25
29045;BME280;16133;49.486;12.176;2023-07-09T05:11:55;97930.16;;;21.07;72.30
29045;BME280;16133;49.486;12.176;2023-07-09T05:14:21;97926.94;;;22.03;67.76
29045;BME280;16133;49.486;12.176;2023-07-09T05:16:46;97925.31;;;22.92;63.40
29045;BME280;16133;49.486;12.176;2023-07-09T05:19:12;97929.03;;;23.74;59.59
29045;BME280;16133;49.486;12.176;2023-07-09T05:21:37;97933.34;;;24.36;56.03
29045;BME280;16133;49.486;12.176;2023-07-09T05:24:04;97930.66;;;24.89;55.17
29045;BME280;16133;49.486;12.176;2023-07-09T05:26:29;97923.38;;;25.32;53.78
29045;BME280;16133;49.486;12.176;2023-07-09T05:28:55;97928.34;;;25.92;51.95
29045;BME280;16133;49.486;12.176;2023-07-09T05:31:22;97931.59;;;26.41;49.72
29045;BME280;16133;49.486;12.176;2023-07-09T05:33:47;97931.69;;;26.86;48.67
29045;BME280;16133;49.486;12.176;2023-07-09T05:36:13;97930.59;;;27.28;48.08
29045;BME280;16133;49.486;12.176;2023-07-09T05:38:42;97936.56;;;27.65;47.34
29045;BME280;16133;49.486;12.176;2023-07-09T05:41:08;97934.56;;;27.91;47.02
29045;BME280;16133;49.486;12.176;2023-07-09T05:43:34;97921.69;;;28.12;45.99
29045;BME280;16133;49.486;12.176;2023-07-09T05:46:01;97942.25;;;28.48;45.35
29045;BME280;16133;49.486;12.176;2023-07-09T05:48:26;97930.97;;;28.70;44.31
29045;BME280;16133;49.486;12.176;2023-07-09T05:50:53;97934.06;;;28.92;43.46
29045;BME280;16133;49.486;12.176;2023-07-09T05:53:20;97931.47;;;29.11;43.45
29045;BME280;16133;49.486;12.176;2023-07-09T05:55:45;97931.38;;;29.21;43.35
29045;BME280;16133;49.486;12.176;2023-07-09T05:58:11;97934.19;;;29.44;42.13
29045;BME280;16133;49.486;12.176;2023-07-09T06:00:36;97925.91;;;29.55;40.96
29045;BME280;16133;49.486;12.176;2023-07-09T06:03:03;97932.56;;;29.72;41.11
29045;BME280;16133;49.486;12.176;2023-07-09T06:05:32;97928.56;;;29.88;41.06
29045;BME280;16133;49.486;12.176;2023-07-09T06:07:58;97926.88;;;29.93;40.57
29045;BME280;16133;49.486;12.176;2023-07-09T06:10:23;97921.28;;;30.03;40.60
29045;BME280;16133;49.486;12.176;2023-07-09T06:12:49;97924.41;;;30.15;40.78
29045;BME280;16133;49.486;12.176;2023-07-09T06:15:14;97923.22;;;30.21;40.46
29045;BME280;16133;49.486;12.176;2023-07-09T06:17:42;97926.44;;;30.28;40.83
29045;BME280;16133;49.486;12.176;2023-07-09T06:20:08;97920.66;;;30.29;40.08
29045;BME280;16133;49.486;12.176;2023-07-09T06:22:34;97925.84;;;30.31;39.69
29045;BME280;16133;49.486;12.176;2023-07-09T06:24:59;97927.25;;;30.28;40.20
29045;BME280;16133;49.486;12.176;2023-07-09T06:27:25;97918.28;;;30.23;39.48
29045;BME280;16133;49.486;12.176;2023-07-09T06:29:51;97920.91;;;30.09;39.03
29045;BME280;16133;49.486;12.176;2023-07-09T06:32:17;97920.81;;;29.96;39.42
29045;BME280;16133;49.486;12.176;2023-07-09T06:34:42;97931.63;;;29.58;39.05
29045;BME280;16133;49.486;12.176;2023-07-09T06:37:07;97922.91;;;29.22;40.39
29045;BME280;16133;49.486;12.176;2023-07-09T06:39:33;97935.41;;;28.94;41.15
29045;BME280;16133;49.486;12.176;2023-07-09T06:41:58;97921.03;;;28.40;41.16
29045;BME280;16133;49.486;12.176;2023-07-09T06:44:24;97928.78;;;28.08;42.49
29045;BME280;16133;49.486;12.176;2023-07-09T06:46:50;97928.38;;;27.70;43.04
29045;BME280;16133;49.486;12.176;2023-07-09T06:49:16;97926.75;;;27.39;43.44
29045;BME280;16133;49.486;12.176;2023-07-09T06:51:41;97922.69;;;27.11;43.67
29045;BME280;16133;49.486;12.176;2023-07-09T06:54:08;97927.88;;;26.97;44.43
29045;BME280;16133;49.486;12.176;2023-07-09T06:56:34;97928.44;;;26.94;45.13
29045;BME280;16133;49.486;12.176;2023-07-09T06:58:59;97928.97;;;26.86;44.80
29045;BME280;16133;49.486;12.176;2023-07-09T07:01:25;97922.41;;;26.82;45.31
29045;BME280;16133;49.486;12.176;2023-07-09T07:03:51;97923.47;;;26.76;45.22
29045;BME280;16133;49.486;12.176;2023-07-09T07:06:16;97929.19;;;26.75;45.50
29045;BME280;16133;49.486;12.176;2023-07-09T07:08:42;97926.19;;;26.71;45.53
29045;BME280;16133;49.486;12.176;2023-07-09T07:11:07;97929.44;;;26.68;45.60
29045;BME280;16133;49.486;12.176;2023-07-09T07:13:38;97927.00;;;26.67;45.74
29045;BME280;16133;49.486;12.176;2023-07-09T07:16:09;97927.81;;;26.67;45.24
29045;BME280;16133;49.486;12.176;2023-07-09T07:18:36;97921.81;;;26.65;45.01
29045;BME280;16133;49.486;12.176;2023-07-09T07:21:02;97919.09;;;26.70;44.88
29045;BME280;16133;49.486;12.176;2023-07-09T07:23:28;97918.81;;;26.72;44.80
29045;BME280;16133;49.486;12.176;2023-07-09T07:25:53;97926.19;;;26.76;45.33
29045;BME280;16133;49.486;12.176;2023-07-09T07:28:19;97926.78;;;26.88;45.47
29045;BME280;16133;49.486;12.176;2023-07-09T07:30:45;97915.34;;;26.96;45.04
29045;BME280;16133;49.486;12.176;2023-07-09T07:33:13;97912.34;;;27.03;45.20
29045;BME280;16133;49.486;12.176;2023-07-09T07:35:38;97917.78;;;27.08;44.62
29045;BME280;16133;49.486;12.176;2023-07-09T07:38:04;97909.34;;;27.20;45.13
29045;BME280;16133;49.486;12.176;2023-07-09T07:40:29;97914.25;;;27.28;45.10
29045;BME280;16133;49.486;12.176;2023-07-09T07:42:54;97906.34;;;27.36;45.08
29045;BME280;16133;49.486;12.176;2023-07-09T07:45:20;97909.59;;;27.43;45.41
29045;BME280;16133;49.486;12.176;2023-07-09T07:47:46;97911.50;;;27.53;44.75
29045;BME280;16133;49.486;12.176;2023-07-09T07:50:11;97905.78;;;27.60;44.25
29045;BME280;16133;49.486;12.176;2023-07-09T07:52:36;97900.03;;;27.66;44.38
29045;BME280;16133;49.486;12.176;2023-07-09T07:55:06;97906.56;;;27.70;44.11
29045;BME280;16133;49.486;12.176;2023-07-09T07:57:32;97908.16;;;27.76;44.25
29045;BME280;16133;49.486;12.176;2023-07-09T07:59:58;97910.88;;;27.76;44.07
29045;BME280;16133;49.486;12.176;2023-07-09T08:02:24;97912.25;;;27.79;44.52
29045;BME280;16133;49.486;12.176;2023-07-09T08:04:50;97902.94;;;27.85;45.55
29045;BME280;16133;49.486;12.176;2023-07-09T08:07:17;97900.75;;;27.87;43.79
29045;BME280;16133;49.486;12.176;2023-07-09T08:09:44;97905.09;;;27.93;44.61
29045;BME280;16133;49.486;12.176;2023-07-09T08:12:10;97909.19;;;27.95;44.34
29045;BME280;16133;49.486;12.176;2023-07-09T08:14:39;97907.25;;;28.01;44.32
29045;BME280;16133;49.486;12.176;2023-07-09T08:17:05;97899.06;;;28.01;43.21
29045;BME280;16133;49.486;12.176;2023-07-09T08:19:31;97904.53;;;28.01;42.90
29045;BME280;16133;49.486;12.176;2023-07-09T08:21:57;97905.88;;;28.03;43.49
29045;BME280;16133;49.486;12.176;2023-07-09T08:24:23;97903.97;;;28.09;44.14
29045;BME280;16133;49.486;12.176;2023-07-09T08:26:48;97906.66;;;28.14;43.67
29045;BME280;16133;49.486;12.176;2023-07-09T08:29:14;97905.84;;;28.14;43.29
29045;BME280;16133;49.486;12.176;2023-07-09T08:31:39;97900.38;;;28.14;43.29
29045;BME280;16133;49.486;12.176;2023-07-09T08:34:07;97903.66;;;28.16;43.11
29045;BME280;16133;49.486;12.176;2023-07-09T08:36:33;97895.75;;;28.14;43.58
29045;BME280;16133;49.486;12.176;2023-07-09T08:39:00;97906.41;;;28.16;43.37
29045;BME280;16133;49.486;12.176;2023-07-09T08:41:43;97901.75;;;28.16;43.57
29045;BME280;16133;49.486;12.176;2023-07-09T08:44:42;97899.28;;;28.20;44.04
29045;BME280;16133;49.486;12.176;2023-07-09T08:47:29;97897.06;;;28.27;43.74
29045;BME280;16133;49.486;12.176;2023-07-09T08:50:02;97905.31;;;28.17;43.62
29045;BME280;16133;49.486;12.176;2023-07-09T08:52:40;97899.81;;;28.22;44.10
29045;BME280;16133;49.486;12.176;2023-07-09T08:55:15;97898.72;;;28.23;44.51
29045;BME280;16133;49.486;12.176;2023-07-09T08:57:44;97906.88;;;28.28;44.59
29045;BME280;16133;49.486;12.176;2023-07-09T09:00:17;97898.66;;;28.33;44.15
29045;BME280;16133;49.486;12.176;2023-07-09T09:02:52;97892.66;;;28.36;43.77
29045;BME280;16133;49.486;12.176;2023-07-09T09:05:21;97896.16;;;28.41;45.20
29045;BME280;16133;49.486;12.176;2023-07-09T09:07:57;97888.75;;;28.47;43.89
29045;BME280;16133;49.486;12.176;2023-07-09T09:10:46;97890.38;;;28.48;44.24
29045;BME280;16133;49.486;12.176;2023-07-09T09:13:15;97889.00;;;28.50;43.37
29045;BME280;16133;49.486;12.176;2023-07-09T09:15:45;97885.97;;;28.52;42.62
29045;BME280;16133;49.486;12.176;2023-07-09T09:18:20;97896.28;;;28.60;44.27
29045;BME280;16133;49.486;12.176;2023-07-09T09:23:51;97897.88;;;28.76;42.89
29045;BME280;16133;49.486;12.176;2023-07-09T09:28:53;97896.09;;;28.90;43.68
29045;BME280;16133;49.486;12.176;2023-07-09T09:31:19;97892.75;;;28.98;43.37
29045;BME280;16133;49.486;12.176;2023-07-09T09:33:47;97896.84;;;29.01;42.09
29045;BME280;16133;49.486;12.176;2023-07-09T09:38:44;97894.84;;;29.12;41.61
29045;BME280;16133;49.486;12.176;2023-07-09T09:41:16;97886.06;;;29.15;42.80
29045;BME280;16133;49.486;12.176;2023-07-09T09:43:44;97890.13;;;29.17;43.05
29045;BME280;16133;49.486;12.176;2023-07-09T09:46:17;97885.44;;;29.23;42.69
29045;BME280;16133;49.486;12.176;2023-07-09T09:48:45;97885.97;;;29.25;42.86
29045;BME280;16133;49.486;12.176;2023-07-09T09:51:12;97887.59;;;29.31;42.42
29045;BME280;16133;49.486;12.176;2023-07-09T09:53:40;97876.06;;;29.34;41.90
29045;BME280;16133;49.486;12.176;2023-07-09T09:56:14;97889.63;;;29.44;41.87
29045;BME280;16133;49.486;12.176;2023-07-09T09:58:40;97884.69;;;29.46;42.01
29045;BME280;16133;49.486;12.176;2023-07-09T10:01:16;97891.22;;;29.50;42.15
29045;BME280;16133;49.486;12.176;2023-07-09T10:03:41;97890.59;;;29.58;42.78
29045;BME280;16133;49.486;12.176;2023-07-09T10:06:15;97894.28;;;29.67;42.91
29045;BME280;16133;49.486;12.176;2023-07-09T10:08:56;97890.41;;;29.73;41.94
29045;BME280;16133;49.486;12.176;2023-07-09T10:12:02;97886.00;;;29.77;41.50
29045;BME280;16133;49.486;12.176;2023-07-09T10:17:00;97887.88;;;29.82;41.04
29045;BME280;16133;49.486;12.176;2023-07-09T10:19:41;97884.25;;;29.86;39.88
29045;BME280;16133;49.486;12.176;2023-07-09T10:22:15;97890.25;;;29.88;37.58
29045;BME280;16133;49.486;12.176;2023-07-09T10:31:21;97885.19;;;30.01;36.00
29045;BME280;16133;49.486;12.176;2023-07-09T10:41:40;97870.44;;;30.20;34.33
29045;BME280;16133;49.486;12.176;2023-07-09T10:44:19;97873.72;;;30.17;33.46
29045;BME280;16133;49.486;12.176;2023-07-09T10:46:50;97863.53;;;30.23;33.80
29045;BME280;16133;49.486;12.176;2023-07-09T10:49:19;97865.63;;;30.31;34.79
29045;BME280;16133;49.486;12.176;2023-07-09T10:51:52;97866.34;;;30.36;34.29
29045;BME280;16133;49.486;12.176;2023-07-09T10:56:58;97857.44;;;30.50;31.68
29045;BME280;16133;49.486;12.176;2023-07-09T10:59:30;97860.22;;;30.63;31.43
29045;BME280;16133;49.486;12.176;2023-07-09T11:05:01;97857.22;;;30.78;31.91
29045;BME280;16133;49.486;12.176;2023-07-09T11:07:58;97851.97;;;30.82;31.42
29045;BME280;16133;49.486;12.176;2023-07-09T11:10:38;97844.56;;;30.82;31.45
29045;BME280;16133;49.486;12.176;2023-07-09T11:13:13;97851.19;;;30.81;31.18
29045;BME280;16133;49.486;12.176;2023-07-09T11:15:44;97842.50;;;30.74;31.00
29045;BME280;16133;49.486;12.176;2023-07-09T11:18:20;97844.06;;;30.80;31.58
29045;BME280;16133;49.486;12.176;2023-07-09T11:20:46;97832.50;;;30.83;31.94
29045;BME280;16133;49.486;12.176;2023-07-09T11:23:21;97841.47;;;30.89;31.72
29045;BME280;16133;49.486;12.176;2023-07-09T11:25:49;97834.25;;;30.93;31.63
29045;BME280;16133;49.486;12.176;2023-07-09T11:28:37;97830.09;;;30.96;31.86
29045;BME280;16133;49.486;12.176;2023-07-09T11:31:14;97831.22;;;30.95;31.62
29045;BME280;16133;49.486;12.176;2023-07-09T11:33:47;97827.31;;;31.01;31.87
29045;BME280;16133;49.486;12.176;2023-07-09T11:36:23;97832.41;;;31.07;32.45
29045;BME280;16133;49.486;12.176;2023-07-09T11:38:48;97827.63;;;31.13;31.72
29045;BME280;16133;49.486;12.176;2023-07-09T11:44:05;97825.47;;;31.10;30.84
29045;BME280;16133;49.486;12.176;2023-07-09T11:46:36;97818.78;;;31.02;30.37
29045;BME280;16133;49.486;12.176;2023-07-09T11:49:08;97810.59;;;30.97;31.84
29045;BME280;16133;49.486;12.176;2023-07-09T11:51:40;97814.38;;;31.01;32.32
29045;BME280;16133;49.486;12.176;2023-07-09T11:54:11;97810.88;;;31.01;31.58
29045;BME280;16133;49.486;12.176;2023-07-09T11:56:40;97805.06;;;31.02;30.91
29045;BME280;16133;49.486;12.176;2023-07-09T11:59:07;97798.97;;;31.05;31.90
29045;BME280;16133;49.486;12.176;2023-07-09T12:01:40;97807.72;;;31.07;32.94
29045;BME280;16133;49.486;12.176;2023-07-09T12:04:12;97807.31;;;31.14;33.95
29045;BME280;16133;49.486;12.176;2023-07-09T12:06:40;97808.44;;;31.13;31.92
29045;BME280;16133;49.486;12.176;2023-07-09T12:09:05;97794.63;;;31.18;31.84
29045;BME280;16133;49.486;12.176;2023-07-09T12:11:32;97795.94;;;31.20;32.18
29045;BME280;16133;49.486;12.176;2023-07-09T12:16:34;97776.94;;;31.24;33.50
29045;BME280;16133;49.486;12.176;2023-07-09T12:19:00;97790.69;;;31.38;32.35
29045;BME280;16133;49.486;12.176;2023-07-09T12:21:26;97794.94;;;31.44;33.07
29045;BME280;16133;49.486;12.176;2023-07-09T12:23:54;97797.31;;;31.50;33.46
29045;BME280;16133;49.486;12.176;2023-07-09T12:26:21;97789.56;;;31.52;32.54
29045;BME280;16133;49.486;12.176;2023-07-09T12:28:54;97789.56;;;31.52;31.65
29045;BME280;16133;49.486;12.176;2023-07-09T12:31:25;97795.91;;;31.53;30.69
29045;BME280;16133;49.486;12.176;2023-07-09T12:33:53;97776.28;;;31.59;31.27
29045;BME280;16133;49.486;12.176;2023-07-09T12:36:20;97770.06;;;31.67;32.67
29045;BME280;16133;49.486;12.176;2023-07-09T12:38:49;97774.03;;;31.75;33.04
29045;BME280;16133;49.486;12.176;2023-07-09T12:41:38;97769.63;;;31.88;33.65
29045;BME280;16133;49.486;12.176;2023-07-09T12:44:04;97763.72;;;31.94;32.59
29045;BME280;16133;49.486;12.176;2023-07-09T12:46:29;97762.09;;;32.07;31.36
29045;BME280;16133;49.486;12.176;2023-07-09T12:48:55;97760.22;;;32.16;31.22
29045;BME280;16133;49.486;12.176;2023-07-09T12:51:25;97750.66;;;32.27;30.61
29045;BME280;16133;49.486;12.176;2023-07-09T12:54:12;97756.69;;;32.38;30.30
29045;BME280;16133;49.486;12.176;2023-07-09T12:56:40;97757.69;;;32.42;30.48
29045;BME280;16133;49.486;12.176;2023-07-09T13:02:18;97746.00;;;32.36;29.48
29045;BME280;16133;49.486;12.176;2023-07-09T13:04:44;97748.63;;;32.41;28.32
29045;BME280;16133;49.486;12.176;2023-07-09T13:09:53;97744.69;;;32.34;28.36
29045;BME280;16133;49.486;12.176;2023-07-09T13:12:39;97742.50;;;32.22;28.58
29045;BME280;16133;49.486;12.176;2023-07-09T13:15:06;97740.06;;;32.20;31.58
29045;BME280;16133;49.486;12.176;2023-07-09T13:17:31;97741.25;;;32.28;31.07
29045;BME280;16133;49.486;12.176;2023-07-09T13:19:57;97740.84;;;32.35;30.87
29045;BME280;16133;49.486;12.176;2023-07-09T13:22:23;97741.63;;;32.35;31.02
29045;BME280;16133;49.486;12.176;2023-07-09T13:24:49;97742.63;;;32.39;30.27
29045;BME280;16133;49.486;12.176;2023-07-09T13:27:15;97729.41;;;32.41;30.60
29045;BME280;16133;49.486;12.176;2023-07-09T13:29:41;97733.63;;;32.47;32.06
29045;BME280;16133;49.486;12.176;2023-07-09T13:32:11;97737.00;;;32.44;31.92